sensor_id;sensor_type;location;lat;lon;timestamp;P1;P4;P2;P0;N10;N4;N25;N1;N05;TS
79466;SPS30;68933;49.726;9.226;2023-05-10T00:01:12;2.6;;2.6;2.5;;;;;;
79466;SPS30;68933;49.726;9.226;2023-05-10T00:03:25;2.6;;2.6;2.5;;;;;;
79466;SPS30;68933;49.726;9.226;2023-05-10T00:05:38;2.5;;2.5;2.4;;;;;;
79466;SPS30;68933;49.726;9.226;2023-05-10T00:07:51;2.5;;2.5;2.4;;;;;;
79466;SPS30;68933;49.726;9.226;2023-05-10T00:10:04;3.1;;3.1;3;;;;;;
79466;SPS30;68933;49.726;9.226;2023-05-10T00:12:17;3.1;;3.1;3;;;;;;
79466;SPS30;68933;49.726;9.226;2023-05-10T00:14:30;3.1;;3.1;3;;;;;;
79466;SPS30;68933;49.726;9.226;2023-05-10T00:16:43;2.9;;2.9;2.7;;;;;;
79466;SPS30;68933;49.726;9.226;2023-05-10T00:18:56;2.9;;2.9;2.7;;;;;;
79466;SPS30;68933;49.726;9.226;2023-05-10T00:21:09;1.8;;1.8;1.7;;;;;;
79466;SPS30;68933;49.726;9.226;2023-05-10T00:23:22;1.8;;1.8;1.7;;;;;;
79466;SPS30;68933;49.726;9.226;2023-05-10T00:25:35;0.9;;0.9;0.9;;;;;;
79466;SPS30;68933;49.726;9.226;2023-05-10T00:27:48;0.9;;0.9;0.9;;;;;;
79466;SPS30;68933;49.726;9.226;2023-05-10T00:30:01;0.9;;0.9;0.9;;;;;;
79466;SPS30;68933;49.726;9.226;2023-05-10T00:32:14;0.8;;0.8;0.8;;;;;;
79466;SPS30;68933;49.726;9.226;2023-05-10T00:34:27;0.8;;0.8;0.8;;;;;;
79466;SPS30;68933;49.726;9.226;2023-05-10T00:36:40;0.6;;0.6;0.6;;;;;;
79466;SPS30;68933;49.726;9.226;2023-05-10T00:38:53;0.6;;0.6;0.6;;;;;;
79466;SPS30;68933;49.726;9.226;2023-05-10T00:41:06;0.6;;0.6;0.6;;;;;;
79466;SPS30;68933;49.726;9.226;2023-05-10T00:43:19;0.6;;0.6;0.6;;;;;;
79466;SPS30;68933;49.726;9.226;2023-05-10T00:45:32;0.6;;0.6;0.6;;;;;;
79466;SPS30;68933;49.726;9.226;2023-05-10T00:47:45;0.7;;0.7;0.7;;;;;;
79466;SPS30;68933;49.726;9.226;2023-05-10T00:49:58;0.7;;0.7;0.7;;;;;;
79466;SPS30;68933;49.726;9.226;2023-05-10T00:52:11;0.5;;0.5;0.5;;;;;;
79466;SPS30;68933;49.726;9.226;2023-05-10T00:54:24;0.5;;0.5;0.5;;;;;;
79466;SPS30;68933;49.726;9.226;2023-05-10T00:56:37;0.4;;0.4;0.4;;;;;;
79466;SPS30;68933;49.726;9.226;2023-05-10T00:58:50;0.4;;0.4;0.4;;;;;;
79466;SPS30;68933;49.726;9.226;2023-05-10T01:01:04;0.4;;0.4;0.4;;;;;;
79466;SPS30;68933;49.726;9.226;2023-05-10T01:03:16;0.5;;0.5;0.4;;;;;;
79466;SPS30;68933;49.726;9.226;2023-05-10T01:05:29;0.5;;0.5;0.4;;;;;;
79466;SPS30;68933;49.726;9.226;2023-05-10T01:07:42;0.6;;0.6;0.6;;;;;;
79466;SPS30;68933;49.726;9.226;2023-05-10T01:09:55;0.6;;0.6;0.6;;;;;;
79466;SPS30;68933;49.726;9.226;2023-05-10T01:12:08;0.6;;0.6;0.5;;;;;;
79466;SPS30;68933;49.726;9.226;2023-05-10T01:14:21;0.6;;0.6;0.5;;;;;;
79466;SPS30;68933;49.726;9.226;2023-05-10T01:16:35;0.6;;0.6;0.5;;;;;;
79466;SPS30;68933;49.726;9.226;2023-05-10T01:18:47;0.6;;0.6;0.5;;;;;;
79466;SPS30;68933;49.726;9.226;2023-05-10T01:21:04;0.6;;0.6;0.5;;;;;;
79466;SPS30;68933;49.726;9.226;2023-05-10T01:23:22;0.6;;0.6;0.6;;;;;;
79466;SPS30;68933;49.726;9.226;2023-05-10T01:25:31;0.6;;0.6;0.6;;;;;;
79466;SPS30;68933;49.726;9.226;2023-05-10T01:27:47;0.4;;0.4;0.4;;;;;;
79466;SPS30;68933;49.726;9.226;2023-05-10T01:30:01;0.4;;0.4;0.4;;;;;;
79466;SPS30;68933;49.726;9.226;2023-05-10T01:32:08;0.6;;0.6;0.6;;;;;;
79466;SPS30;68933;49.726;9.226;2023-05-10T01:34:19;0.6;;0.6;0.6;;;;;;
79466;SPS30;68933;49.726;9.226;2023-05-10T01:36:32;0.5;;0.5;0.5;;;;;;
79466;SPS30;68933;49.726;9.226;2023-05-10T01:38:46;0.5;;0.5;0.5;;;;;;
79466;SPS30;68933;49.726;9.226;2023-05-10T01:41:00;0.5;;0.5;0.5;;;;;;
79466;SPS30;68933;49.726;9.226;2023-05-10T01:43:11;0.8;;0.8;0.7;;;;;;
79466;SPS30;68933;49.726;9.226;2023-05-10T01:45:24;0.8;;0.8;0.7;;;;;;
79466;SPS30;68933;49.726;9.226;2023-05-10T01:47:37;0.5;;0.5;0.5;;;;;;
79466;SPS30;68933;49.726;9.226;2023-05-10T01:49:49;0.5;;0.5;0.5;;;;;;
79466;SPS30;68933;49.726;9.226;2023-05-10T01:52:04;0.6;;0.6;0.6;;;;;;
79466;SPS30;68933;49.726;9.226;2023-05-10T01:54:15;0.6;;0.6;0.6;;;;;;
79466;SPS30;68933;49.726;9.226;2023-05-10T01:56:29;0.5;;0.5;0.5;;;;;;
79466;SPS30;68933;49.726;9.226;2023-05-10T01:58:42;0.5;;0.5;0.5;;;;;;
79466;SPS30;68933;49.726;9.226;2023-05-10T02:00:54;0.5;;0.5;0.5;;;;;;
79466;SPS30;68933;49.726;9.226;2023-05-10T02:03:07;0.4;;0.4;0.4;;;;;;
79466;SPS30;68933;49.726;9.226;2023-05-10T02:05:20;0.4;;0.4;0.4;;;;;;
79466;SPS30;68933;49.726;9.226;2023-05-10T02:07:34;0.6;;0.6;0.6;;;;;;
79466;SPS30;68933;49.726;9.226;2023-05-10T02:09:46;0.6;;0.6;0.6;;;;;;
79466;SPS30;68933;49.726;9.226;2023-05-10T02:11:59;0.7;;0.7;0.6;;;;;;
79466;SPS30;68933;49.726;9.226;2023-05-10T02:14:12;0.7;;0.7;0.6;;;;;;
79466;SPS30;68933;49.726;9.226;2023-05-10T02:16:26;0.6;;0.6;0.6;;;;;;
79466;SPS30;68933;49.726;9.226;2023-05-10T02:18:38;0.6;;0.6;0.6;;;;;;
79466;SPS30;68933;49.726;9.226;2023-05-10T02:20:51;0.8;;0.8;0.7;;;;;;
79466;SPS30;68933;49.726;9.226;2023-05-10T02:23:04;0.8;;0.8;0.7;;;;;;
79466;SPS30;68933;49.726;9.226;2023-05-10T02:25:17;0.6;;0.6;0.6;;;;;;
79466;SPS30;68933;49.726;9.226;2023-05-10T02:27:30;0.6;;0.6;0.6;;;;;;
79466;SPS30;68933;49.726;9.226;2023-05-10T02:29:43;0.6;;0.6;0.6;;;;;;
79466;SPS30;68933;49.726;9.226;2023-05-10T02:31:56;0.7;;0.7;0.7;;;;;;
79466;SPS30;68933;49.726;9.226;2023-05-10T02:34:09;0.7;;0.7;0.7;;;;;;
79466;SPS30;68933;49.726;9.226;2023-05-10T02:36:22;0.7;;0.7;0.7;;;;;;
79466;SPS30;68933;49.726;9.226;2023-05-10T02:38:35;0.6;;0.6;0.6;;;;;;
79466;SPS30;68933;49.726;9.226;2023-05-10T02:40:48;0.6;;0.6;0.6;;;;;;
79466;SPS30;68933;49.726;9.226;2023-05-10T02:43:01;1;;1;0.9;;;;;;
79466;SPS30;68933;49.726;9.226;2023-05-10T02:45:15;1;;1;0.9;;;;;;
79466;SPS30;68933;49.726;9.226;2023-05-10T02:47:27;0.7;;0.7;0.7;;;;;;
79466;SPS30;68933;49.726;9.226;2023-05-10T02:49:40;0.7;;0.7;0.7;;;;;;
79466;SPS30;68933;49.726;9.226;2023-05-10T02:51:55;0.7;;0.7;0.7;;;;;;
79466;SPS30;68933;49.726;9.226;2023-05-10T02:54:07;0.8;;0.8;0.8;;;;;;
79466;SPS30;68933;49.726;9.226;2023-05-10T02:56:20;0.8;;0.8;0.8;;;;;;
79466;SPS30;68933;49.726;9.226;2023-05-10T02:58:32;0.9;;0.9;0.9;;;;;;
79466;SPS30;68933;49.726;9.226;2023-05-10T03:00:45;0.9;;0.9;0.9;;;;;;
79466;SPS30;68933;49.726;9.226;2023-05-10T03:02:58;0.9;;0.9;0.9;;;;;;
79466;SPS30;68933;49.726;9.226;2023-05-10T03:05:11;0.6;;0.6;0.5;;;;;;
79466;SPS30;68933;49.726;9.226;2023-05-10T03:07:24;0.6;;0.6;0.5;;;;;;
79466;SPS30;68933;49.726;9.226;2023-05-10T03:09:37;0.9;;0.9;0.9;;;;;;
79466;SPS30;68933;49.726;9.226;2023-05-10T03:11:53;0.9;;0.9;0.9;;;;;;
79466;SPS30;68933;49.726;9.226;2023-05-10T03:14:07;0.9;;0.9;0.9;;;;;;
79466;SPS30;68933;49.726;9.226;2023-05-10T03:16:17;0.9;;0.9;0.9;;;;;;
79466;SPS30;68933;49.726;9.226;2023-05-10T03:18:32;0.9;;0.9;0.9;;;;;;
79466;SPS30;68933;49.726;9.226;2023-05-10T03:20:43;1.6;;1.6;1.5;;;;;;
79466;SPS30;68933;49.726;9.226;2023-05-10T03:22:57;1.6;;1.6;1.5;;;;;;
79466;SPS30;68933;49.726;9.226;2023-05-10T03:25:08;0.7;;0.7;0.7;;;;;;
79466;SPS30;68933;49.726;9.226;2023-05-10T03:27:22;0.7;;0.7;0.7;;;;;;
79466;SPS30;68933;49.726;9.226;2023-05-10T03:29:34;0.9;;0.9;0.8;;;;;;
79466;SPS30;68933;49.726;9.226;2023-05-10T03:31:47;0.9;;0.9;0.8;;;;;;
79466;SPS30;68933;49.726;9.226;2023-05-10T03:34:00;0.9;;0.9;0.8;;;;;;
79466;SPS30;68933;49.726;9.226;2023-05-10T03:36:13;1.1;;1.1;1.1;;;;;;
79466;SPS30;68933;49.726;9.226;2023-05-10T03:38:26;1.1;;1.1;1.1;;;;;;
79466;SPS30;68933;49.726;9.226;2023-05-10T03:40:39;1;;1;1;;;;;;
79466;SPS30;68933;49.726;9.226;2023-05-10T03:42:52;1;;1;1;;;;;;
79466;SPS30;68933;49.726;9.226;2023-05-10T03:45:06;1;;1;1;;;;;;
79466;SPS30;68933;49.726;9.226;2023-05-10T03:47:18;1;;1;1;;;;;;
79466;SPS30;68933;49.726;9.226;2023-05-10T03:49:31;1;;1;1;;;;;;
79466;SPS30;68933;49.726;9.226;2023-05-10T03:51:44;1.9;;1.9;1.9;;;;;;
79466;SPS30;68933;49.726;9.226;2023-05-10T03:53:57;1.9;;1.9;1.9;;;;;;
79466;SPS30;68933;49.726;9.226;2023-05-10T03:56:10;1.5;;1.5;1.4;;;;;;
79466;SPS30;68933;49.726;9.226;2023-05-10T03:58:23;1.5;;1.5;1.4;;;;;;
79466;SPS30;68933;49.726;9.226;2023-05-10T04:00:36;1.6;;1.6;1.6;;;;;;
79466;SPS30;68933;49.726;9.226;2023-05-10T04:02:49;1.6;;1.6;1.6;;;;;;
79466;SPS30;68933;49.726;9.226;2023-05-10T04:05:02;1.6;;1.6;1.6;;;;;;
79466;SPS30;68933;49.726;9.226;2023-05-10T04:07:15;1.1;;1.1;1;;;;;;
79466;SPS30;68933;49.726;9.226;2023-05-10T04:09:28;1.1;;1.1;1;;;;;;
79466;SPS30;68933;49.726;9.226;2023-05-10T04:11:41;1.2;;1.2;1.1;;;;;;
79466;SPS30;68933;49.726;9.226;2023-05-10T04:13:54;1.2;;1.2;1.1;;;;;;
79466;SPS30;68933;49.726;9.226;2023-05-10T04:16:07;1.8;;1.8;1.7;;;;;;
79466;SPS30;68933;49.726;9.226;2023-05-10T04:18:20;1.8;;1.8;1.7;;;;;;
79466;SPS30;68933;49.726;9.226;2023-05-10T04:20:33;1.8;;1.8;1.7;;;;;;
79466;SPS30;68933;49.726;9.226;2023-05-10T04:22:46;1.5;;1.5;1.4;;;;;;
79466;SPS30;68933;49.726;9.226;2023-05-10T04:24:59;1.5;;1.5;1.4;;;;;;
79466;SPS30;68933;49.726;9.226;2023-05-10T04:27:12;1.3;;1.3;1.3;;;;;;
79466;SPS30;68933;49.726;9.226;2023-05-10T04:29:25;1.3;;1.3;1.3;;;;;;
79466;SPS30;68933;49.726;9.226;2023-05-10T04:31:38;1.9;;1.9;1.8;;;;;;
79466;SPS30;68933;49.726;9.226;2023-05-10T04:33:51;1.9;;1.9;1.8;;;;;;
79466;SPS30;68933;49.726;9.226;2023-05-10T04:36:04;2.3;;2.3;2.2;;;;;;
79466;SPS30;68933;49.726;9.226;2023-05-10T04:38:17;2.3;;2.3;2.2;;;;;;
79466;SPS30;68933;49.726;9.226;2023-05-10T04:40:30;2.3;;2.3;2.2;;;;;;
79466;SPS30;68933;49.726;9.226;2023-05-10T04:42:43;1.5;;1.5;1.4;;;;;;
79466;SPS30;68933;49.726;9.226;2023-05-10T04:44:56;1.5;;1.5;1.4;;;;;;
79466;SPS30;68933;49.726;9.226;2023-05-10T04:47:09;1.5;;1.5;1.5;;;;;;
79466;SPS30;68933;49.726;9.226;2023-05-10T04:49:22;1.5;;1.5;1.5;;;;;;
79466;SPS30;68933;49.726;9.226;2023-05-10T04:51:35;1.7;;1.7;1.6;;;;;;
79466;SPS30;68933;49.726;9.226;2023-05-10T04:53:48;1.7;;1.7;1.6;;;;;;
79466;SPS30;68933;49.726;9.226;2023-05-10T04:56:01;1.7;;1.7;1.6;;;;;;
79466;SPS30;68933;49.726;9.226;2023-05-10T04:58:14;1.7;;1.7;1.6;;;;;;
79466;SPS30;68933;49.726;9.226;2023-05-10T05:00:27;2.4;;2.4;2.3;;;;;;
79466;SPS30;68933;49.726;9.226;2023-05-10T05:02:42;2.4;;2.4;2.3;;;;;;
79466;SPS30;68933;49.726;9.226;2023-05-10T05:04:55;2.4;;2.4;2.3;;;;;;
79466;SPS30;68933;49.726;9.226;2023-05-10T05:07:06;2.4;;2.4;2.3;;;;;;
79466;SPS30;68933;49.726;9.226;2023-05-10T05:09:19;2.2;;2.2;2.1;;;;;;
79466;SPS30;68933;49.726;9.226;2023-05-10T05:11:32;2.3;;2.3;2.2;;;;;;
79466;SPS30;68933;49.726;9.226;2023-05-10T05:13:45;2.3;;2.3;2.2;;;;;;
79466;SPS30;68933;49.726;9.226;2023-05-10T05:15:59;2.5;;2.5;2.4;;;;;;
79466;SPS30;68933;49.726;9.226;2023-05-10T05:18:11;2.5;;2.5;2.4;;;;;;
79466;SPS30;68933;49.726;9.226;2023-05-10T05:20:24;2.5;;2.5;2.4;;;;;;
79466;SPS30;68933;49.726;9.226;2023-05-10T05:22:37;3.3;;3.3;3.1;;;;;;
79466;SPS30;68933;49.726;9.226;2023-05-10T05:24:50;2.4;;2.4;2.3;;;;;;
79466;SPS30;68933;49.726;9.226;2023-05-10T05:27:03;2.4;;2.4;2.3;;;;;;
79466;SPS30;68933;49.726;9.226;2023-05-10T05:29:16;2.4;;2.4;2.3;;;;;;
79466;SPS30;68933;49.726;9.226;2023-05-10T05:31:29;2.7;;2.7;2.5;;;;;;
79466;SPS30;68933;49.726;9.226;2023-05-10T05:33:42;2.7;;2.7;2.5;;;;;;
79466;SPS30;68933;49.726;9.226;2023-05-10T05:35:55;3.5;;3.5;3.4;;;;;;
79466;SPS30;68933;49.726;9.226;2023-05-10T05:38:08;3.5;;3.5;3.4;;;;;;
79466;SPS30;68933;49.726;9.226;2023-05-10T05:40:21;3.5;;3.5;3.4;;;;;;
79466;SPS30;68933;49.726;9.226;2023-05-10T05:42:34;3.4;;3.4;3.3;;;;;;
79466;SPS30;68933;49.726;9.226;2023-05-10T05:44:47;3.4;;3.4;3.3;;;;;;
79466;SPS30;68933;49.726;9.226;2023-05-10T05:47:00;2.8;;2.8;2.7;;;;;;
79466;SPS30;68933;49.726;9.226;2023-05-10T05:49:13;2.8;;2.8;2.7;;;;;;
79466;SPS30;68933;49.726;9.226;2023-05-10T05:51:26;2.8;;2.8;2.7;;;;;;
79466;SPS30;68933;49.726;9.226;2023-05-10T05:53:39;2.8;;2.8;2.7;;;;;;
79466;SPS30;68933;49.726;9.226;2023-05-10T05:55:52;2.8;;2.8;2.7;;;;;;
79466;SPS30;68933;49.726;9.226;2023-05-10T05:58:05;2.6;;2.6;2.4;;;;;;
79466;SPS30;68933;49.726;9.226;2023-05-10T06:00:18;2.6;;2.6;2.4;;;;;;
79466;SPS30;68933;49.726;9.226;2023-05-10T06:02:31;2.6;;2.6;2.4;;;;;;
79466;SPS30;68933;49.726;9.226;2023-05-10T06:04:44;2;;2;1.9;;;;;;
79466;SPS30;68933;49.726;9.226;2023-05-10T06:06:57;2;;2;1.9;;;;;;
79466;SPS30;68933;49.726;9.226;2023-05-10T06:09:10;2.2;;2.2;2.1;;;;;;
79466;SPS30;68933;49.726;9.226;2023-05-10T06:11:23;2.2;;2.2;2.1;;;;;;
79466;SPS30;68933;49.726;9.226;2023-05-10T06:13:36;2.2;;2.2;2.1;;;;;;
79466;SPS30;68933;49.726;9.226;2023-05-10T06:15:49;2.4;;2.4;2.3;;;;;;
79466;SPS30;68933;49.726;9.226;2023-05-10T06:18:02;2.4;;2.4;2.3;;;;;;
79466;SPS30;68933;49.726;9.226;2023-05-10T06:20:15;2.4;;2.4;2.3;;;;;;
79466;SPS30;68933;49.726;9.226;2023-05-10T06:22:28;2.4;;2.4;2.3;;;;;;
79466;SPS30;68933;49.726;9.226;2023-05-10T06:24:41;2.1;;2.1;2;;;;;;
79466;SPS30;68933;49.726;9.226;2023-05-10T06:26:54;2.1;;2.1;2;;;;;;
79466;SPS30;68933;49.726;9.226;2023-05-10T06:29:07;2.1;;2.1;2;;;;;;
79466;SPS30;68933;49.726;9.226;2023-05-10T06:31:20;2.4;;2.4;2.3;;;;;;
79466;SPS30;68933;49.726;9.226;2023-05-10T06:33:33;2.4;;2.4;2.3;;;;;;
79466;SPS30;68933;49.726;9.226;2023-05-10T06:35:46;2.3;;2.3;2.2;;;;;;
79466;SPS30;68933;49.726;9.226;2023-05-10T06:37:59;2.3;;2.3;2.2;;;;;;
79466;SPS30;68933;49.726;9.226;2023-05-10T06:40:12;2.3;;2.3;2.2;;;;;;
79466;SPS30;68933;49.726;9.226;2023-05-10T06:42:25;2.3;;2.3;2.2;;;;;;
79466;SPS30;68933;49.726;9.226;2023-05-10T06:44:38;2.3;;2.3;2.2;;;;;;
79466;SPS30;68933;49.726;9.226;2023-05-10T06:46:51;2;;2;1.9;;;;;;
79466;SPS30;68933;49.726;9.226;2023-05-10T06:49:04;2;;2;1.9;;;;;;
79466;SPS30;68933;49.726;9.226;2023-05-10T06:51:17;2;;2;1.9;;;;;;
79466;SPS30;68933;49.726;9.226;2023-05-10T06:53:30;2;;2;1.9;;;;;;
79466;SPS30;68933;49.726;9.226;2023-05-10T06:55:43;2.1;;2.1;2;;;;;;
79466;SPS30;68933;49.726;9.226;2023-05-10T06:57:56;2.1;;2.1;2;;;;;;
79466;SPS30;68933;49.726;9.226;2023-05-10T07:00:09;2.1;;2.1;2;;;;;;
79466;SPS30;68933;49.726;9.226;2023-05-10T07:02:22;2.5;;2.5;2.4;;;;;;
79466;SPS30;68933;49.726;9.226;2023-05-10T07:04:35;2.5;;2.5;2.4;;;;;;
79466;SPS30;68933;49.726;9.226;2023-05-10T07:06:48;2.1;;2.1;2;;;;;;
79466;SPS30;68933;49.726;9.226;2023-05-10T07:09:01;2.1;;2.1;2;;;;;;
79466;SPS30;68933;49.726;9.226;2023-05-10T07:11:14;2.1;;2.1;2;;;;;;
79466;SPS30;68933;49.726;9.226;2023-05-10T07:13:27;2.1;;2.1;2;;;;;;
79466;SPS30;68933;49.726;9.226;2023-05-10T07:15:40;2.1;;2.1;2;;;;;;
79466;SPS30;68933;49.726;9.226;2023-05-10T07:17:53;1.7;;1.7;1.6;;;;;;
79466;SPS30;68933;49.726;9.226;2023-05-10T07:20:07;1.7;;1.7;1.6;;;;;;
79466;SPS30;68933;49.726;9.226;2023-05-10T07:22:19;1.9;;1.9;1.8;;;;;;
79466;SPS30;68933;49.726;9.226;2023-05-10T07:24:32;1.9;;1.9;1.8;;;;;;
79466;SPS30;68933;49.726;9.226;2023-05-10T07:26:45;2.7;;2.7;2.5;;;;;;
79466;SPS30;68933;49.726;9.226;2023-05-10T07:28:58;2.7;;2.7;2.5;;;;;;
79466;SPS30;68933;49.726;9.226;2023-05-10T07:31:11;2.7;;2.7;2.5;;;;;;
79466;SPS30;68933;49.726;9.226;2023-05-10T07:33:24;2.6;;2.6;2.5;;;;;;
79466;SPS30;68933;49.726;9.226;2023-05-10T07:35:37;2.6;;2.6;2.5;;;;;;
79466;SPS30;68933;49.726;9.226;2023-05-10T07:37:50;2.1;;2.1;2;;;;;;
79466;SPS30;68933;49.726;9.226;2023-05-10T07:40:03;2.1;;2.1;2;;;;;;
79466;SPS30;68933;49.726;9.226;2023-05-10T07:42:16;3;;3;2.8;;;;;;
79466;SPS30;68933;49.726;9.226;2023-05-10T07:44:30;3;;3;2.8;;;;;;
79466;SPS30;68933;49.726;9.226;2023-05-10T07:46:42;2.7;;2.7;2.6;;;;;;
79466;SPS30;68933;49.726;9.226;2023-05-10T07:48:55;2.7;;2.7;2.6;;;;;;
79466;SPS30;68933;49.726;9.226;2023-05-10T07:51:08;2.7;;2.7;2.6;;;;;;
79466;SPS30;68933;49.726;9.226;2023-05-10T07:53:21;2.9;;2.9;2.8;;;;;;
79466;SPS30;68933;49.726;9.226;2023-05-10T07:55:34;2.9;;2.9;2.8;;;;;;
79466;SPS30;68933;49.726;9.226;2023-05-10T07:57:47;2.7;;2.7;2.6;;;;;;
79466;SPS30;68933;49.726;9.226;2023-05-10T08:00:00;2.7;;2.7;2.6;;;;;;
79466;SPS30;68933;49.726;9.226;2023-05-10T08:02:13;2.1;;2.1;2;;;;;;
79466;SPS30;68933;49.726;9.226;2023-05-10T08:04:26;2.1;;2.1;2;;;;;;
79466;SPS30;68933;49.726;9.226;2023-05-10T08:06:39;1.9;;1.9;1.8;;;;;;
79466;SPS30;68933;49.726;9.226;2023-05-10T08:08:52;1.9;;1.9;1.8;;;;;;
79466;SPS30;68933;49.726;9.226;2023-05-10T08:11:05;1.9;;1.9;1.8;;;;;;
79466;SPS30;68933;49.726;9.226;2023-05-10T08:13:18;1.9;;1.9;1.8;;;;;;
79466;SPS30;68933;49.726;9.226;2023-05-10T08:15:31;1.9;;1.9;1.8;;;;;;
79466;SPS30;68933;49.726;9.226;2023-05-10T08:17:44;2.1;;2.1;2;;;;;;
79466;SPS30;68933;49.726;9.226;2023-05-10T08:19:57;2.1;;2.1;2;;;;;;
79466;SPS30;68933;49.726;9.226;2023-05-10T08:22:10;2.4;;2.4;2.3;;;;;;
79466;SPS30;68933;49.726;9.226;2023-05-10T08:24:23;2.4;;2.4;2.3;;;;;;
79466;SPS30;68933;49.726;9.226;2023-05-10T08:26:36;2.6;;2.6;2.5;;;;;;
79466;SPS30;68933;49.726;9.226;2023-05-10T08:28:49;2.6;;2.6;2.5;;;;;;
79466;SPS30;68933;49.726;9.226;2023-05-10T08:31:02;2.1;;2.1;2;;;;;;
79466;SPS30;68933;49.726;9.226;2023-05-10T08:33:15;2.1;;2.1;2;;;;;;
79466;SPS30;68933;49.726;9.226;2023-05-10T08:35:28;2.1;;2.1;2;;;;;;
79466;SPS30;68933;49.726;9.226;2023-05-10T08:37:41;2.1;;2.1;2;;;;;;
79466;SPS30;68933;49.726;9.226;2023-05-10T08:39:54;2.1;;2.1;2;;;;;;
79466;SPS30;68933;49.726;9.226;2023-05-10T08:42:07;2.1;;2.1;2;;;;;;
79466;SPS30;68933;49.726;9.226;2023-05-10T08:44:20;2.1;;2.1;2;;;;;;
79466;SPS30;68933;49.726;9.226;2023-05-10T08:46:33;1.9;;1.9;1.9;;;;;;
79466;SPS30;68933;49.726;9.226;2023-05-10T08:48:46;1.9;;1.9;1.9;;;;;;
79466;SPS30;68933;49.726;9.226;2023-05-10T08:50:59;2.5;;2.5;2.4;;;;;;
79466;SPS30;68933;49.726;9.226;2023-05-10T08:53:13;2.5;;2.5;2.4;;;;;;
79466;SPS30;68933;49.726;9.226;2023-05-10T08:55:25;2.5;;2.5;2.4;;;;;;
79466;SPS30;68933;49.726;9.226;2023-05-10T08:57:38;2.1;;2.1;2;;;;;;
79466;SPS30;68933;49.726;9.226;2023-05-10T08:59:51;2.1;;2.1;2;;;;;;
79466;SPS30;68933;49.726;9.226;2023-05-10T09:02:04;2.1;;2.1;2;;;;;;
79466;SPS30;68933;49.726;9.226;2023-05-10T09:04:17;2.1;;2.1;2;;;;;;
79466;SPS30;68933;49.726;9.226;2023-05-10T09:06:30;2.1;;2.1;2;;;;;;
79466;SPS30;68933;49.726;9.226;2023-05-10T09:08:43;1.9;;1.9;1.8;;;;;;
79466;SPS30;68933;49.726;9.226;2023-05-10T09:10:56;1.9;;1.9;1.8;;;;;;
79466;SPS30;68933;49.726;9.226;2023-05-10T09:13:10;2;;2;1.9;;;;;;
79466;SPS30;68933;49.726;9.226;2023-05-10T09:15:22;2;;2;1.9;;;;;;
79466;SPS30;68933;49.726;9.226;2023-05-10T09:17:35;1.9;;1.9;1.8;;;;;;
79466;SPS30;68933;49.726;9.226;2023-05-10T09:19:48;1.9;;1.9;1.8;;;;;;
79466;SPS30;68933;49.726;9.226;2023-05-10T09:22:01;1.9;;1.9;1.8;;;;;;
79466;SPS30;68933;49.726;9.226;2023-05-10T09:24:14;2.1;;2.1;2;;;;;;
79466;SPS30;68933;49.726;9.226;2023-05-10T09:26:27;2.1;;2.1;2;;;;;;
79466;SPS30;68933;49.726;9.226;2023-05-10T09:28:50;1.9;;1.9;1.8;;;;;;
79466;SPS30;68933;49.726;9.226;2023-05-10T09:30:53;1.9;;1.9;1.8;;;;;;
79466;SPS30;68933;49.726;9.226;2023-05-10T09:33:06;1.7;;1.7;1.6;;;;;;
79466;SPS30;68933;49.726;9.226;2023-05-10T09:35:20;1.7;;1.7;1.6;;;;;;
79466;SPS30;68933;49.726;9.226;2023-05-10T09:37:32;1.7;;1.7;1.6;;;;;;
79466;SPS30;68933;49.726;9.226;2023-05-10T09:39:45;1.6;;1.6;1.6;;;;;;
79466;SPS30;68933;49.726;9.226;2023-05-10T09:41:58;1.6;;1.6;1.6;;;;;;
79466;SPS30;68933;49.726;9.226;2023-05-10T09:44:11;1.6;;1.6;1.5;;;;;;
79466;SPS30;68933;49.726;9.226;2023-05-10T09:46:24;1.6;;1.6;1.5;;;;;;
79466;SPS30;68933;49.726;9.226;2023-05-10T09:48:39;1.6;;1.6;1.5;;;;;;
79466;SPS30;68933;49.726;9.226;2023-05-10T09:50:56;1.6;;1.6;1.5;;;;;;
79466;SPS30;68933;49.726;9.226;2023-05-10T09:53:03;1.6;;1.6;1.5;;;;;;
79466;SPS30;68933;49.726;9.226;2023-05-10T09:55:17;1.7;;1.7;1.6;;;;;;
79466;SPS30;68933;49.726;9.226;2023-05-10T09:57:29;1.7;;1.7;1.6;;;;;;
79466;SPS30;68933;49.726;9.226;2023-05-10T09:59:42;1.9;;1.9;1.8;;;;;;
79466;SPS30;68933;49.726;9.226;2023-05-10T10:01:55;1.9;;1.9;1.8;;;;;;
79466;SPS30;68933;49.726;9.226;2023-05-10T10:04:09;1.9;;1.9;1.8;;;;;;
79466;SPS30;68933;49.726;9.226;2023-05-10T10:06:21;2.1;;2.1;2;;;;;;
79466;SPS30;68933;49.726;9.226;2023-05-10T10:08:34;2.1;;2.1;2;;;;;;
79466;SPS30;68933;49.726;9.226;2023-05-10T10:10:47;2.4;;2.4;2.3;;;;;;
79466;SPS30;68933;49.726;9.226;2023-05-10T10:13:00;2.4;;2.4;2.3;;;;;;
79466;SPS30;68933;49.726;9.226;2023-05-10T10:15:13;2;;2;1.9;;;;;;
79466;SPS30;68933;49.726;9.226;2023-05-10T10:17:26;2;;2;1.9;;;;;;
79466;SPS30;68933;49.726;9.226;2023-05-10T10:19:39;2.4;;2.4;2.3;;;;;;
79466;SPS30;68933;49.726;9.226;2023-05-10T10:21:52;2.4;;2.4;2.3;;;;;;
79466;SPS30;68933;49.726;9.226;2023-05-10T10:24:05;2.4;;2.4;2.3;;;;;;
79466;SPS30;68933;49.726;9.226;2023-05-10T10:26:18;1.3;;1.3;1.3;;;;;;
79466;SPS30;68933;49.726;9.226;2023-05-10T10:28:33;1.3;;1.3;1.3;;;;;;
79466;SPS30;68933;49.726;9.226;2023-05-10T10:30:45;1.4;;1.4;1.4;;;;;;
79466;SPS30;68933;49.726;9.226;2023-05-10T10:33:01;1.4;;1.4;1.4;;;;;;
79466;SPS30;68933;49.726;9.226;2023-05-10T10:35:10;1.4;;1.4;1.3;;;;;;
79466;SPS30;68933;49.726;9.226;2023-05-10T10:37:23;1.4;;1.4;1.3;;;;;;
79466;SPS30;68933;49.726;9.226;2023-05-10T10:39:36;1.4;;1.4;1.3;;;;;;
79466;SPS30;68933;49.726;9.226;2023-05-10T10:41:50;1.4;;1.4;1.3;;;;;;
79466;SPS30;68933;49.726;9.226;2023-05-10T10:44:35;1.4;;1.4;1.3;;;;;;
79466;SPS30;68933;49.726;9.226;2023-05-10T10:46:16;1.3;;1.3;1.3;;;;;;
79466;SPS30;68933;49.726;9.226;2023-05-10T10:48:28;1.3;;1.3;1.3;;;;;;
79466;SPS30;68933;49.726;9.226;2023-05-10T10:50:44;1.3;;1.3;1.3;;;;;;
79466;SPS30;68933;49.726;9.226;2023-05-10T10:52:54;1.3;;1.3;1.3;;;;;;
79466;SPS30;68933;49.726;9.226;2023-05-10T10:55:08;1.6;;1.6;1.5;;;;;;
79466;SPS30;68933;49.726;9.226;2023-05-10T10:57:20;1.6;;1.6;1.5;;;;;;
79466;SPS30;68933;49.726;9.226;2023-05-10T10:59:33;1.6;;1.6;1.5;;;;;;
79466;SPS30;68933;49.726;9.226;2023-05-10T11:01:46;1.3;;1.3;1.2;;;;;;
79466;SPS30;68933;49.726;9.226;2023-05-10T11:04:33;1.3;;1.3;1.2;;;;;;
79466;SPS30;68933;49.726;9.226;2023-05-10T11:06:12;1.3;;1.3;1.3;;;;;;
79466;SPS30;68933;49.726;9.226;2023-05-10T11:08:26;1.3;;1.3;1.3;;;;;;
79466;SPS30;68933;49.726;9.226;2023-05-10T11:10:38;1.6;;1.6;1.5;;;;;;
79466;SPS30;68933;49.726;9.226;2023-05-10T11:12:52;1.6;;1.6;1.5;;;;;;
79466;SPS30;68933;49.726;9.226;2023-05-10T11:15:04;1.5;;1.5;1.4;;;;;;
79466;SPS30;68933;49.726;9.226;2023-05-10T11:17:23;1.5;;1.5;1.4;;;;;;
79466;SPS30;68933;49.726;9.226;2023-05-10T11:19:30;1.5;;1.5;1.4;;;;;;
79466;SPS30;68933;49.726;9.226;2023-05-10T11:21:45;1.5;;1.5;1.4;;;;;;
79466;SPS30;68933;49.726;9.226;2023-05-10T11:23:57;1.5;;1.5;1.4;;;;;;
79466;SPS30;68933;49.726;9.226;2023-05-10T11:26:09;1.7;;1.7;1.6;;;;;;
79466;SPS30;68933;49.726;9.226;2023-05-10T11:28:22;1.7;;1.7;1.6;;;;;;
79466;SPS30;68933;49.726;9.226;2023-05-10T11:30:35;1.9;;1.9;1.8;;;;;;
79466;SPS30;68933;49.726;9.226;2023-05-10T11:32:48;1.9;;1.9;1.8;;;;;;
79466;SPS30;68933;49.726;9.226;2023-05-10T11:35:05;2.1;;2.1;2;;;;;;
79466;SPS30;68933;49.726;9.226;2023-05-10T11:37:14;2.1;;2.1;2;;;;;;
79466;SPS30;68933;49.726;9.226;2023-05-10T11:39:27;2.2;;2.2;2.1;;;;;;
79466;SPS30;68933;49.726;9.226;2023-05-10T11:41:40;2.2;;2.2;2.1;;;;;;
79466;SPS30;68933;49.726;9.226;2023-05-10T11:43:54;2.2;;2.2;2.1;;;;;;
79466;SPS30;68933;49.726;9.226;2023-05-10T11:46:06;2.9;;2.9;2.8;;;;;;
79466;SPS30;68933;49.726;9.226;2023-05-10T11:48:19;2.9;;2.9;2.8;;;;;;
79466;SPS30;68933;49.726;9.226;2023-05-10T11:50:32;2.3;;2.3;2.2;;;;;;
79466;SPS30;68933;49.726;9.226;2023-05-10T11:52:45;2.3;;2.3;2.2;;;;;;
79466;SPS30;68933;49.726;9.226;2023-05-10T11:54:58;2.4;;2.4;2.3;;;;;;
79466;SPS30;68933;49.726;9.226;2023-05-10T11:57:11;2.4;;2.4;2.3;;;;;;
79466;SPS30;68933;49.726;9.226;2023-05-10T11:59:24;2.4;;2.4;2.3;;;;;;
79466;SPS30;68933;49.726;9.226;2023-05-10T12:01:37;3.1;;3.1;3;;;;;;
79466;SPS30;68933;49.726;9.226;2023-05-10T12:03:50;3.1;;3.1;3;;;;;;
79466;SPS30;68933;49.726;9.226;2023-05-10T12:06:03;3.1;;3.1;3;;;;;;
79466;SPS30;68933;49.726;9.226;2023-05-10T12:08:20;2;;2;1.9;;;;;;
79466;SPS30;68933;49.726;9.226;2023-05-10T12:10:29;2;;2;1.9;;;;;;
79466;SPS30;68933;49.726;9.226;2023-05-10T12:12:43;2;;2;1.9;;;;;;
79466;SPS30;68933;49.726;9.226;2023-05-10T12:14:55;2;;2;1.9;;;;;;
79466;SPS30;68933;49.726;9.226;2023-05-10T12:17:11;2.2;;2.2;2.1;;;;;;
79466;SPS30;68933;49.726;9.226;2023-05-10T12:19:21;2.2;;2.2;2.1;;;;;;
79466;SPS30;68933;49.726;9.226;2023-05-10T12:21:34;2.2;;2.2;2.1;;;;;;
79466;SPS30;68933;49.726;9.226;2023-05-10T12:23:48;1.8;;1.8;1.7;;;;;;
79466;SPS30;68933;49.726;9.226;2023-05-10T12:26:01;1.8;;1.8;1.7;;;;;;
79466;SPS30;68933;49.726;9.226;2023-05-10T12:28:13;1.9;;1.9;1.8;;;;;;
79466;SPS30;68933;49.726;9.226;2023-05-10T12:30:27;1.9;;1.9;1.8;;;;;;
79466;SPS30;68933;49.726;9.226;2023-05-10T12:32:40;2;;2;1.9;;;;;;
79466;SPS30;68933;49.726;9.226;2023-05-10T12:34:52;2;;2;1.9;;;;;;
79466;SPS30;68933;49.726;9.226;2023-05-10T12:37:05;2;;2;1.9;;;;;;
79466;SPS30;68933;49.726;9.226;2023-05-10T12:39:18;2.1;;2.1;2;;;;;;
79466;SPS30;68933;49.726;9.226;2023-05-10T12:41:31;2.1;;2.1;2;;;;;;